Austin Straubel International Airport
KGRB : now visible

Airfield :











YOU CAN JOIN US ON...

 
LOGIN :

Register | Disclaimer

   EN    FR    IT 

 









Legend :    VFR   Marginal VFR   IFR   Intensive IFR   Very Intensive IFR
Visi :
Ceiling :
>= 8 km
>= 3000ft
5 to 8 km
1000 to 3000 ft
1500m to 5 km
500 to 1000 ft
800 to 1500m
200 to 500 ft
< 800m
< 200 ft
Symbols :   Thunderstorms  Fog  Heavy snow  Heavy precipitations  Wind > 20 kt







- Airport Elevation : 695 ft
- IATA code : GRB


KGRB - Austin Straubel International

CURRENT METAR :
  • 212053Z 20009KT 10SM FEW016 OVC022 24/21 A2991 RMK AO2 SLP127 60000 T02390206 58009

EXPIRED METARs :
  • 211953Z AUTO 19012G22KT 10SM SCT020 BKN026 OVC070 24/21 A2992 RMK AO2 RAB10E40 SLP131 P0000 T02390206
  • 211853Z 19010G17KT 10SM OVC029 24/21 A2994 RMK AO2 SLP137 T02440206
  • 211845Z 20012G19KT 10SM OVC031 24/21 A2994 RMK AO2 T02440206

TAF KGRB
Valid from the 21 at 18:00 until the 22 at 18:00 UTC


211739Z 2118/2218 20012G18KT P6SM OVC020
TEMPO 2120/2123 6SM -SHRA BR OVC015
FM212300 20011G20KT P6SM -SHRA OVC022 WS020/22040KT
FM220600 21009G16KT 3SM -SHRA BR OVC008 WS020/24035KT
FM220800 22007KT 3SM BR VCSH OVC012
TEMPO 2209/2213 1 1/2SM BR OVC009
FM221600 26009KT P6SM SCT012 OVC120
No reported NOTAMs for that airfield.



MET'MAP, your aeronautical weather chart ! - Copyright ORBIFLY December 2007 - Disclaimer

ORBIFLY MET'MAP TEAM :

Programming & Development : Alexandra Zaïnal
Concept & Development : Baudouin d'Aumeries
Co-Development & Prog : Marc-Olivier Méhu
Technical & hardware support : Manuel Goepfert

Contact : metmap@orbifly.com




SOURCES & CREDITS :

   NOAA       Earth
Advisory